createdAt,value
2024-04-10T00:01:10.426Z,81.10
2024-04-10T00:03:38.377Z,81.40
2024-04-10T00:06:12.300Z,81.31
2024-04-10T00:08:40.005Z,80.94
2024-04-10T00:11:10.219Z,81.22
2024-04-10T00:13:38.376Z,81.17
2024-04-10T00:16:11.894Z,80.80
2024-04-10T00:18:40.041Z,80.92
2024-04-10T00:21:10.213Z,80.68
2024-04-10T00:23:38.129Z,80.29
2024-04-10T00:26:08.427Z,80.35
2024-04-10T00:28:35.865Z,80.21
2024-04-10T00:31:09.197Z,80.22
2024-04-10T00:33:40.929Z,80.36
2024-04-10T00:36:11.724Z,80.02
2024-04-10T00:38:39.196Z,79.89
2024-04-10T00:41:10.528Z,79.77
2024-04-10T00:43:38.110Z,79.94
2024-04-10T00:46:16.023Z,79.36
2024-04-10T00:48:44.506Z,79.34
2024-04-10T00:51:26.464Z,79.51
2024-04-10T00:53:55.450Z,79.86
2024-04-10T00:56:26.369Z,79.47
2024-04-10T00:58:56.542Z,79.70
2024-04-10T01:01:26.709Z,79.25
2024-04-10T01:03:54.469Z,79.76
2024-04-10T01:06:32.780Z,79.22
2024-04-10T01:09:00.413Z,79.22
2024-04-10T01:11:30.583Z,79.37
2024-04-10T01:13:58.145Z,78.91
2024-04-10T01:16:28.316Z,79.18
2024-04-10T01:18:55.729Z,78.69
2024-04-10T01:21:25.688Z,78.83
2024-04-10T01:23:53.122Z,78.61
2024-04-10T01:26:23.196Z,78.69
2024-04-10T01:28:50.657Z,78.61
2024-04-10T01:31:20.632Z,78.80
2024-04-10T01:33:48.082Z,78.52
2024-04-10T01:36:18.657Z,78.27
2024-04-10T01:38:47.333Z,78.19
2024-04-10T01:41:17.498Z,78.37
2024-04-10T01:43:44.970Z,78.77
2024-04-10T01:46:15.139Z,78.84
2024-04-10T01:48:42.706Z,78.22
2024-04-10T01:51:13.088Z,78.14
2024-04-10T01:53:40.651Z,78.57
2024-04-10T01:56:10.792Z,78.39
2024-04-10T01:58:38.207Z,78.24
2024-04-10T02:01:08.267Z,78.26
2024-04-10T02:03:35.893Z,78.70
2024-04-10T02:06:06.154Z,78.65
2024-04-10T02:08:33.686Z,78.42
2024-04-10T02:11:21.449Z,78.13
2024-04-10T02:13:49.062Z,77.79
2024-04-10T02:16:19.421Z,77.30
2024-04-10T02:18:46.925Z,76.95
2024-04-10T02:21:18.283Z,76.41
2024-04-10T02:23:45.710Z,76.20
2024-04-10T02:26:17.099Z,76.20
2024-04-10T02:28:44.892Z,76.79
2024-04-10T02:31:14.909Z,76.06
2024-04-10T02:33:42.591Z,75.16
2024-04-10T02:36:13.161Z,75.64
2024-04-10T02:38:41.206Z,75.57
2024-04-10T02:41:11.202Z,74.64
2024-04-10T02:43:38.684Z,74.56
2024-04-10T02:46:09.870Z,74.16
2024-04-10T02:48:38.037Z,74.08
2024-04-10T02:51:08.463Z,73.97
2024-04-10T02:53:36.076Z,73.60
2024-04-10T02:56:06.402Z,73.59
2024-04-10T02:58:33.860Z,73.59
2024-04-10T03:01:04.495Z,72.92
2024-04-10T03:03:32.082Z,73.02
2024-04-10T03:06:06.494Z,73.25
2024-04-10T03:08:35.141Z,72.81
2024-04-10T03:11:06.463Z,73.35
2024-04-10T03:13:34.288Z,73.17
2024-04-10T03:16:04.301Z,74.25
2024-04-10T03:18:31.977Z,73.98
2024-04-10T03:21:01.844Z,74.27
2024-04-10T03:23:29.515Z,73.79
2024-04-10T03:26:07.898Z,73.09
2024-04-10T03:28:35.682Z,72.99
2024-04-10T03:31:09.059Z,72.43
2024-04-10T03:33:37.405Z,72.13
2024-04-10T03:36:08.125Z,71.32
2024-04-10T03:38:35.784Z,71.98
2024-04-10T03:41:05.836Z,72.10
2024-04-10T03:43:35.784Z,72.13
2024-04-10T03:46:07.699Z,72.05
2024-04-10T03:48:37.939Z,71.97
2024-04-10T03:51:08.292Z,71.71
2024-04-10T03:53:38.496Z,72.31
2024-04-10T03:56:05.832Z,72.14
2024-04-10T03:58:35.851Z,71.67
2024-04-10T04:01:03.416Z,71.19
2024-04-10T04:03:35.150Z,71.53
2024-04-10T04:06:02.796Z,71.57
2024-04-10T04:08:33.119Z,71.34
2024-04-10T04:11:00.776Z,71.61
2024-04-10T04:13:30.948Z,71.22
2024-04-10T04:15:58.585Z,71.25
2024-04-10T04:18:28.658Z,71.10
2024-04-10T04:20:56.061Z,71.41
2024-04-10T04:23:26.135Z,71.37
2024-04-10T04:25:53.541Z,71.37
2024-04-10T04:28:23.578Z,71.45
2024-04-10T04:30:51.442Z,71.28
2024-04-10T04:33:22.074Z,71.30
2024-04-10T04:35:49.833Z,71.10
2024-04-10T04:38:19.885Z,71.16
2024-04-10T04:40:47.388Z,71.83
2024-04-10T04:43:17.341Z,71.89
2024-04-10T04:45:44.771Z,70.97
2024-04-10T04:48:15.224Z,70.94
2024-04-10T04:50:43.582Z,70.99
2024-04-10T04:53:14.250Z,70.78
2024-04-10T04:55:43.475Z,70.77
2024-04-10T04:58:14.556Z,71.08
2024-04-10T05:00:42.196Z,70.75
2024-04-10T05:03:33.757Z,71.01
2024-04-10T05:06:04.946Z,71.14
2024-04-10T05:08:34.932Z,71.24
2024-04-10T05:11:11.293Z,71.10
2024-04-10T05:13:40.590Z,71.24
2024-04-10T05:16:12.085Z,71.26
2024-04-10T05:18:39.590Z,71.16
2024-04-10T05:21:09.631Z,70.76
2024-04-10T05:23:37.049Z,70.64
2024-04-10T05:26:09.771Z,70.63
2024-04-10T05:28:37.183Z,70.46
2024-04-10T05:31:11.807Z,71.28
2024-04-10T05:33:39.650Z,71.47
2024-04-10T05:36:10.684Z,71.49
2024-04-10T05:38:40.930Z,71.61
2024-04-10T05:41:08.445Z,70.96
2024-04-10T05:43:38.426Z,71.16
2024-04-10T05:46:05.875Z,71.57
2024-04-10T05:48:36.086Z,71.40
2024-04-10T05:51:03.670Z,71.03
2024-04-10T05:53:34.978Z,70.96
2024-04-10T05:56:05.577Z,70.77
2024-04-10T05:58:38.169Z,70.80
2024-04-10T06:01:09.701Z,70.82
2024-04-10T06:03:40.809Z,70.94
2024-04-10T06:06:14.266Z,70.23
2024-04-10T06:08:44.955Z,70.05
2024-04-10T06:11:13.040Z,69.92
2024-04-10T06:13:43.181Z,70.18
2024-04-10T06:16:10.673Z,70.37
2024-04-10T06:18:40.872Z,69.94
2024-04-10T06:21:08.869Z,69.86
2024-04-10T06:23:39.430Z,68.93
2024-04-10T06:26:06.992Z,69.04
2024-04-10T06:28:37.060Z,69.20
2024-04-10T06:31:08.179Z,69.48
2024-04-10T06:33:38.403Z,68.89
2024-04-10T06:36:06.186Z,68.74
2024-04-10T06:38:38.406Z,68.95
2024-04-10T06:41:07.331Z,68.59
2024-04-10T06:43:37.448Z,68.35
2024-04-10T06:46:09.298Z,67.65
2024-04-10T06:48:40.806Z,67.55
2024-04-10T06:51:08.486Z,67.43
2024-04-10T06:53:38.772Z,67.42
2024-04-10T06:56:08.063Z,67.18
2024-04-10T06:58:38.447Z,67.64
2024-04-10T07:01:10.629Z,66.87
2024-04-10T07:03:42.769Z,66.52
2024-04-10T07:06:17.518Z,65.76
2024-04-10T07:08:51.260Z,65.63
2024-04-10T07:11:22.487Z,64.81
2024-04-10T07:13:58.388Z,64.86
2024-04-10T07:16:29.008Z,64.62
2024-04-10T07:19:00.434Z,65.12
2024-04-10T07:21:28.155Z,63.58
2024-04-10T07:24:00.747Z,63.23
2024-04-10T07:26:29.890Z,63.44
2024-04-10T07:29:01.269Z,62.89
2024-04-10T07:31:33.097Z,61.65
2024-04-10T07:34:04.940Z,61.17
2024-04-10T07:36:36.773Z,60.68
2024-04-10T07:39:09.931Z,60.51
2024-04-10T07:41:40.617Z,59.20
2024-04-10T07:44:11.049Z,59.44
2024-04-10T07:46:38.478Z,59.90
2024-04-10T07:49:11.352Z,59.08
2024-04-10T07:51:42.380Z,59.83
2024-04-10T07:54:09.828Z,59.37
2024-04-10T07:56:39.872Z,57.71
2024-04-10T07:59:07.887Z,59.29
2024-04-10T08:01:37.932Z,59.81
2024-04-10T08:04:08.235Z,59.42
2024-04-10T08:06:38.985Z,58.77
2024-04-10T08:09:06.497Z,58.65
2024-04-10T08:11:36.519Z,58.04
2024-04-10T08:14:04.601Z,58.37
2024-04-10T08:16:34.763Z,58.20
2024-04-10T08:19:03.736Z,58.58
2024-04-10T08:21:37.570Z,58.03
2024-04-10T08:24:05.279Z,57.43
2024-04-10T08:26:35.526Z,56.48
2024-04-10T08:29:04.497Z,56.52
2024-04-10T08:31:34.762Z,56.64
2024-04-10T08:36:42.110Z,55.46
2024-04-10T08:39:09.676Z,55.39
2024-04-10T08:41:41.938Z,55.13
2024-04-10T08:44:09.447Z,55.26
2024-04-10T08:46:40.407Z,56.28
2024-04-10T08:49:10.373Z,55.85
2024-04-10T08:51:40.556Z,56.48
2024-04-10T08:54:09.056Z,53.90
2024-04-10T08:56:39.392Z,54.87
2024-04-10T08:59:06.861Z,53.75
2024-04-10T09:01:38.877Z,54.48
2024-04-10T09:04:10.312Z,55.42
2024-04-10T09:06:41.450Z,55.30
2024-04-10T09:09:10.223Z,55.24
2024-04-10T09:11:41.747Z,54.32
2024-04-10T09:14:13.053Z,53.94
2024-04-10T09:16:43.855Z,54.66
2024-04-10T09:19:17.045Z,54.27
2024-04-10T09:21:58.829Z,54.76
2024-04-10T09:24:27.702Z,53.59
2024-04-10T09:26:58.284Z,54.02
2024-04-10T09:29:30.189Z,54.44
2024-04-10T09:32:06.671Z,55.19
2024-04-10T09:34:36.047Z,54.06
2024-04-10T09:37:06.854Z,53.67
2024-04-10T09:39:34.250Z,53.03
2024-04-10T09:42:04.835Z,53.01
2024-04-10T09:44:34.001Z,55.03
2024-04-10T09:47:04.762Z,54.02
2024-04-10T09:49:50.637Z,54.55
2024-04-10T09:52:20.775Z,54.72
2024-04-10T09:54:49.635Z,52.42
2024-04-10T09:57:19.814Z,52.50
2024-04-10T09:59:49.327Z,52.98
2024-04-10T10:02:21.621Z,52.69
2024-04-10T10:04:50.052Z,53.84
2024-04-10T10:07:28.905Z,53.44
2024-04-10T10:10:09.334Z,53.62
2024-04-10T10:12:39.512Z,53.96
2024-04-10T10:15:11.491Z,51.88
2024-04-10T10:17:53.578Z,54.14
2024-04-10T10:20:27.983Z,52.58
2024-04-10T10:23:10.486Z,52.60
2024-04-10T10:25:40.641Z,52.46
2024-04-10T10:28:14.251Z,51.59
2024-04-10T10:30:44.699Z,52.14
2024-04-10T10:33:17.130Z,52.21
2024-04-10T10:35:44.808Z,50.86
2024-04-10T10:38:14.917Z,51.28
2024-04-10T10:40:42.441Z,52.00
2024-04-10T10:43:13.130Z,51.44
2024-04-10T10:45:40.689Z,51.62
2024-04-10T10:48:10.910Z,51.90
2024-04-10T10:50:38.411Z,52.08
2024-04-10T10:53:13.203Z,52.85
2024-04-10T10:55:58.119Z,51.96
2024-04-10T10:58:28.887Z,52.49
2024-04-10T11:00:56.428Z,51.81
2024-04-10T11:03:30.296Z,51.27
2024-04-10T11:06:11.974Z,52.24
2024-04-10T11:08:42.590Z,51.77
2024-04-10T11:11:16.167Z,51.25
2024-04-10T11:13:55.032Z,51.49
2024-04-10T11:16:30.485Z,51.93
2024-04-10T11:19:00.151Z,52.14
2024-04-10T11:21:27.688Z,52.46
2024-04-10T11:23:57.889Z,52.56
2024-04-10T11:26:25.898Z,51.98
2024-04-10T11:29:00.264Z,51.55
2024-04-10T11:31:27.652Z,51.62
2024-04-10T11:33:58.090Z,51.79
2024-04-10T11:36:25.873Z,51.89
2024-04-10T11:38:56.172Z,51.54
2024-04-10T11:41:24.565Z,52.21
2024-04-10T11:43:54.663Z,51.50
2024-04-10T11:46:22.075Z,51.56
2024-04-10T11:48:52.176Z,51.35
2024-04-10T11:51:19.617Z,51.22
2024-04-10T11:53:49.423Z,51.53
2024-04-10T11:56:16.954Z,52.27
2024-04-10T11:58:47.093Z,51.55
2024-04-10T12:01:15.070Z,52.12
2024-04-10T12:03:45.188Z,52.25
2024-04-10T12:06:12.902Z,52.24
2024-04-10T12:08:43.015Z,51.77
2024-04-10T12:11:10.563Z,52.36
2024-04-10T12:13:42.134Z,53.42
2024-04-10T12:16:09.890Z,51.84
2024-04-10T12:18:40.044Z,52.28
2024-04-10T12:21:09.675Z,51.52
2024-04-10T12:23:39.987Z,53.19
2024-04-10T12:26:08.968Z,52.05
2024-04-10T12:28:39.206Z,53.89
2024-04-10T12:31:06.663Z,52.92
2024-04-10T12:33:38.703Z,53.25
2024-04-10T12:36:24.930Z,52.29
2024-04-10T12:38:55.089Z,51.48
2024-04-10T12:41:25.157Z,51.04
2024-04-10T12:43:56.311Z,50.82
2024-04-10T12:46:28.426Z,51.12
2024-04-10T12:48:58.864Z,51.09
2024-04-10T12:51:26.374Z,51.65
2024-04-10T12:53:56.553Z,51.55
2024-04-10T12:56:24.705Z,50.94
2024-04-10T12:58:54.751Z,49.51
2024-04-10T13:01:23.514Z,48.96
2024-04-10T13:03:55.990Z,49.58
2024-04-10T13:06:25.529Z,49.22
2024-04-10T13:08:56.158Z,49.19
2024-04-10T13:11:23.748Z,49.69
2024-04-10T13:13:53.832Z,51.26
2024-04-10T13:16:21.480Z,50.77
2024-04-10T13:18:55.756Z,50.01
2024-04-10T13:21:23.223Z,49.48
2024-04-10T13:23:54.084Z,49.96
2024-04-10T13:26:21.563Z,50.19
2024-04-10T13:28:53.339Z,49.98
2024-04-10T13:31:23.131Z,50.02
2024-04-10T13:33:56.773Z,50.25
2024-04-10T13:36:24.554Z,51.13
2024-04-10T13:38:55.884Z,49.87
2024-04-10T13:41:25.126Z,51.09
2024-04-10T13:43:56.991Z,51.46
2024-04-10T13:46:24.732Z,51.29
2024-04-10T13:48:55.819Z,51.60
2024-04-10T13:51:25.476Z,50.51
2024-04-10T13:53:56.719Z,51.10
2024-04-10T13:56:24.785Z,50.70
2024-04-10T13:58:54.932Z,50.15
2024-04-10T14:01:23.911Z,50.39
2024-04-10T14:03:57.023Z,49.92
2024-04-10T14:06:26.500Z,49.56
2024-04-10T14:08:58.117Z,49.99
2024-04-10T14:11:26.350Z,48.63
2024-04-10T14:13:56.700Z,50.18
2024-04-10T14:16:24.287Z,50.25
2024-04-10T14:18:54.431Z,50.02
2024-04-10T14:21:21.961Z,50.44
2024-04-10T14:23:52.116Z,49.74
2024-04-10T14:26:19.894Z,50.24
2024-04-10T14:28:50.235Z,50.17
2024-04-10T14:31:17.622Z,51.05
2024-04-10T14:33:48.749Z,51.06
2024-04-10T14:36:17.182Z,50.77
2024-04-10T14:38:47.806Z,50.70
2024-04-10T14:41:15.327Z,50.30
2024-04-10T14:43:46.379Z,49.87
2024-04-10T14:46:18.258Z,50.15
2024-04-10T14:48:50.595Z,50.30
2024-04-10T14:51:18.927Z,51.67
2024-04-10T14:53:49.111Z,51.66
2024-04-10T14:56:18.327Z,51.65
2024-04-10T14:58:49.428Z,50.75
2024-04-10T15:01:23.125Z,50.52
2024-04-10T15:03:55.795Z,50.25
2024-04-10T15:06:23.837Z,50.44
2024-04-10T15:08:54.992Z,50.18
2024-04-10T15:11:27.740Z,51.78
2024-04-10T15:13:59.161Z,51.57
2024-04-10T15:16:27.319Z,52.97
2024-04-10T15:19:02.039Z,51.87
2024-04-10T15:21:30.978Z,52.47
2024-04-10T15:24:01.261Z,53.87
2024-04-10T15:26:28.851Z,53.86
2024-04-10T15:28:58.912Z,53.62
2024-04-10T15:31:26.338Z,53.28
2024-04-10T15:33:56.896Z,52.85
2024-04-10T15:36:24.451Z,52.54
2024-04-10T15:38:55.705Z,50.11
2024-04-10T15:41:24.406Z,52.39
2024-04-10T15:43:54.739Z,51.25
2024-04-10T15:46:22.707Z,51.34
2024-04-10T15:48:53.544Z,52.07
2024-04-10T15:51:21.271Z,51.81
2024-04-10T15:53:51.296Z,53.24
2024-04-10T15:56:18.807Z,52.91
2024-04-10T15:58:48.722Z,52.04
2024-04-10T16:01:16.274Z,52.33
2024-04-10T16:03:48.351Z,53.38
2024-04-10T16:06:20.268Z,54.42
2024-04-10T16:08:51.091Z,54.14
2024-04-10T16:11:21.163Z,55.79
2024-04-10T16:13:52.311Z,54.92
2024-04-10T16:16:21.619Z,53.27
2024-04-10T16:18:53.375Z,53.38
2024-04-10T16:21:21.444Z,53.22
2024-04-10T16:23:54.095Z,53.98
2024-04-10T16:26:25.359Z,54.61
2024-04-10T16:28:55.695Z,55.25
2024-04-10T16:31:23.142Z,55.06
2024-04-10T16:33:54.965Z,55.90
2024-04-10T16:36:22.822Z,55.14
2024-04-10T16:38:53.120Z,54.29
2024-04-10T16:41:20.685Z,53.07
2024-04-10T16:43:51.523Z,54.09
2024-04-10T16:46:19.036Z,53.83
2024-04-10T16:48:49.929Z,54.93
2024-04-10T16:51:17.928Z,55.22
2024-04-10T16:53:49.033Z,55.06
2024-04-10T16:56:17.881Z,54.95
2024-04-10T16:58:48.882Z,55.67
2024-04-10T17:01:16.866Z,55.27
2024-04-10T17:03:47.238Z,54.14
2024-04-10T17:06:15.107Z,54.04
2024-04-10T17:08:45.282Z,53.52
2024-04-10T17:11:19.099Z,53.16
2024-04-10T17:13:49.632Z,53.17
2024-04-10T17:16:17.077Z,53.15
2024-04-10T17:19:03.221Z,54.00
2024-04-10T17:21:49.200Z,54.47
2024-04-10T17:24:20.078Z,54.36
2024-04-10T17:26:50.162Z,54.33
2024-04-10T17:29:22.940Z,54.79
2024-04-10T17:31:55.678Z,56.74
2024-04-10T17:34:24.201Z,56.78
2024-04-10T17:36:54.433Z,56.25
2024-04-10T17:39:27.127Z,56.65
2024-04-10T17:41:57.333Z,57.55
2024-04-10T17:44:24.954Z,55.93
2024-04-10T17:46:55.612Z,54.87
2024-04-10T17:49:25.911Z,55.46
2024-04-10T17:51:53.275Z,54.82
2024-04-10T17:54:23.306Z,55.92
2024-04-10T17:56:50.749Z,57.09
2024-04-10T17:59:20.781Z,58.54
2024-04-10T18:01:48.348Z,58.17
2024-04-10T18:04:18.506Z,57.23
2024-04-10T18:06:46.005Z,56.95
2024-04-10T18:09:15.987Z,59.51
2024-04-10T18:11:43.411Z,60.20
2024-04-10T18:14:13.627Z,60.73
2024-04-10T18:16:41.000Z,61.45
2024-04-10T18:19:11.124Z,61.77
2024-04-10T18:21:38.610Z,63.04
2024-04-10T18:24:08.777Z,62.91
2024-04-10T18:26:36.931Z,63.99
2024-04-10T18:29:09.192Z,63.81
2024-04-10T18:31:36.652Z,64.75
2024-04-10T18:34:06.731Z,64.88
2024-04-10T18:38:14.154Z,66.52
2024-04-10T18:40:41.551Z,66.71
2024-04-10T18:43:15.674Z,68.42
2024-04-10T18:45:57.165Z,68.43
2024-04-10T18:48:29.043Z,68.80
2024-04-10T18:50:56.886Z,68.93
2024-04-10T18:53:26.928Z,68.78
2024-04-10T18:56:02.590Z,68.98
2024-04-10T18:58:33.007Z,68.76
2024-04-10T19:01:04.544Z,69.09
2024-04-10T19:03:35.365Z,70.02
2024-04-10T19:06:12.814Z,70.24
2024-04-10T19:08:44.595Z,70.34
2024-04-10T19:11:13.455Z,70.36
2024-04-10T19:13:44.293Z,70.81
2024-04-10T19:16:11.667Z,70.95
2024-04-10T19:18:44.422Z,70.64
2024-04-10T19:21:12.873Z,71.15
2024-04-10T19:23:43.274Z,71.40
2024-04-10T19:26:12.903Z,71.46
2024-04-10T19:28:42.992Z,71.14
2024-04-10T19:31:10.427Z,71.53
2024-04-10T19:33:40.745Z,72.40
2024-04-10T19:36:11.000Z,72.80
2024-04-10T19:38:41.724Z,73.10
2024-04-10T19:41:11.584Z,73.30
2024-04-10T19:43:49.385Z,73.35
2024-04-10T19:46:16.962Z,73.55
2024-04-10T19:48:47.274Z,73.63
2024-04-10T19:51:14.758Z,73.73
2024-04-10T19:53:46.596Z,74.17
2024-04-10T19:56:14.094Z,74.18
2024-04-10T19:58:44.443Z,74.38
2024-04-10T20:01:12.940Z,74.38
2024-04-10T20:03:44.340Z,74.00
2024-04-10T20:06:12.854Z,74.07
2024-04-10T20:08:43.511Z,74.35
2024-04-10T20:11:11.586Z,74.41
2024-04-10T20:13:42.975Z,74.52
2024-04-10T20:16:11.506Z,74.70
2024-04-10T20:18:44.146Z,74.97
2024-04-10T20:21:14.254Z,75.25
2024-04-10T20:23:44.608Z,75.62
2024-04-10T20:26:12.199Z,75.56
2024-04-10T20:28:42.263Z,75.74
2024-04-10T20:31:12.759Z,76.14
2024-04-10T20:33:44.244Z,75.96
2024-04-10T20:36:12.530Z,76.12
2024-04-10T20:38:44.417Z,75.40
2024-04-10T20:41:12.735Z,75.96
2024-04-10T20:43:45.986Z,75.68
2024-04-10T20:46:13.663Z,76.41
2024-04-10T20:48:49.387Z,76.21
2024-04-10T20:51:18.873Z,75.95
2024-04-10T20:53:51.500Z,76.25
2024-04-10T20:56:21.436Z,76.54
2024-04-10T20:58:52.789Z,76.36
2024-04-10T21:01:20.766Z,76.56
2024-04-10T21:03:53.759Z,76.63
2024-04-10T21:06:21.257Z,76.54
2024-04-10T21:09:07.909Z,76.94
2024-04-10T21:11:56.001Z,76.97
2024-04-10T21:14:42.900Z,76.81
2024-04-10T21:17:29.007Z,76.95
2024-04-10T21:20:14.988Z,76.63
2024-04-10T21:23:00.780Z,76.55
2024-04-10T21:25:49.836Z,77.17
2024-04-10T21:28:36.389Z,76.79
2024-04-10T21:31:26.181Z,76.94
2024-04-10T21:34:12.500Z,76.45
2024-04-10T21:36:58.872Z,77.40
2024-04-10T21:39:45.476Z,76.60
2024-04-10T21:42:31.925Z,77.39
2024-04-10T21:45:17.993Z,77.36
2024-04-10T21:48:04.555Z,77.60
2024-04-10T21:50:50.961Z,77.29
2024-04-10T21:53:37.619Z,77.74
2024-04-10T21:56:24.958Z,77.37
2024-04-10T21:59:11.961Z,77.63
2024-04-10T22:04:47.697Z,77.05
2024-04-10T22:07:33.803Z,77.56
2024-04-10T22:10:00.942Z,77.34
2024-04-10T22:12:31.038Z,77.82
2024-04-10T22:15:01.297Z,78.49
2024-04-10T22:17:47.375Z,78.52
2024-04-10T22:20:33.363Z,78.33
2024-04-10T22:23:19.325Z,78.46
2024-04-10T22:25:56.283Z,78.10
2024-04-10T22:28:27.730Z,78.52
2024-04-10T22:30:57.778Z,78.24
2024-04-10T22:33:25.464Z,78.33
2024-04-10T22:36:02.273Z,78.57
2024-04-10T22:38:29.737Z,78.56
2024-04-10T22:40:59.803Z,78.88
2024-04-10T22:43:27.243Z,79.04
2024-04-10T22:45:57.341Z,78.94
2024-04-10T22:48:27.516Z,78.58
2024-04-10T22:50:56.683Z,78.54
2024-04-10T22:53:26.991Z,78.84
2024-04-10T22:55:54.521Z,79.18
2024-04-10T22:58:24.733Z,78.84
2024-04-10T23:00:51.922Z,78.45
2024-04-10T23:03:22.205Z,78.72
2024-04-10T23:05:56.019Z,79.19
2024-04-10T23:08:33.041Z,79.42
2024-04-10T23:11:02.348Z,78.86
2024-04-10T23:13:32.871Z,78.97
2024-04-10T23:16:00.589Z,78.92
2024-04-10T23:18:42.104Z,78.57
2024-04-10T23:21:17.890Z,78.70
2024-04-10T23:23:47.901Z,79.19
2024-04-10T23:26:15.297Z,78.56
2024-04-10T23:28:45.510Z,79.17
2024-04-10T23:31:12.972Z,79.78
2024-04-10T23:33:43.109Z,79.85
2024-04-10T23:36:10.669Z,79.41
2024-04-10T23:38:40.773Z,79.52
2024-04-10T23:41:08.175Z,79.73
2024-04-10T23:43:38.235Z,79.47
2024-04-10T23:46:06.841Z,79.66
2024-04-10T23:48:37.027Z,79.14
2024-04-10T23:51:04.808Z,79.17
2024-04-10T23:53:34.936Z,79.64
2024-04-10T23:56:02.707Z,79.62
2024-04-10T23:58:33.304Z,79.16
